Time;durP1;ratioP1;P1;durP2;ratioP2;P2;SDS_P1;SDS_P2;PMS_P1;PMS_P2;Temp;Humidity;BMP_temperature;BMP_pressure;BME280_temperature;BME280_humidity;BME280_pressure;Samples;Min_cycle;Max_cycle;Signal;HPM_P1;HPM_P2
2023/01/26 00:01:24;;;;;;;13.07;7.10;;;6.30;70.80;6.00;96766.00;;;;5047856;28;20232;-78
2023/01/26 00:03:51;;;;;;;10.90;6.43;;;6.30;70.80;6.00;96766.00;;;;5052910;28;20200;-82
2023/01/26 00:06:21;;;;;;;15.20;7.07;;;6.30;70.80;6.00;96763.00;;;;5059263;28;20224;-82
2023/01/26 00:08:51;;;;;;;13.67;7.10;;;6.30;70.80;6.00;96756.00;;;;5058307;28;20200;-81
2023/01/26 00:11:25;;;;;;;15.03;6.57;;;6.30;70.70;5.90;96752.00;;;;5067207;28;20577;-81
2023/01/26 00:13:53;;;;;;;14.83;6.40;;;6.30;70.60;5.90;96751.00;;;;5057335;28;20203;-80
2023/01/26 00:16:20;;;;;;;11.83;6.63;;;6.20;70.70;5.90;96744.00;;;;5057940;28;20231;-81
2023/01/26 00:18:48;;;;;;;18.03;7.93;;;6.20;70.70;5.90;96745.00;;;;5055721;28;20619;-81
2023/01/26 00:21:19;;;;;;;14.60;7.47;;;6.20;70.70;5.90;96740.00;;;;5057678;28;20224;-81
2023/01/26 00:23:47;;;;;;;11.97;6.83;;;6.20;70.70;5.90;96731.00;;;;5057935;28;20197;-81
2023/01/26 00:26:20;;;;;;;15.43;7.00;;;6.20;70.60;5.90;96732.00;;;;5063586;28;20204;-83
2023/01/26 00:28:47;;;;;;;10.90;6.67;;;6.20;70.50;5.80;96740.00;;;;5056123;28;20200;-81
2023/01/26 00:31:17;;;;;;;13.83;6.50;;;6.20;71.20;5.80;96730.00;;;;5076202;28;20589;-84
2023/01/26 00:33:45;;;;;;;10.93;6.77;;;6.20;70.60;5.80;96728.00;;;;5064657;28;20197;-82
2023/01/26 00:36:13;;;;;;;22.33;7.10;;;6.20;70.60;5.80;96734.00;;;;5062090;28;20220;-81
2023/01/26 00:38:41;;;;;;;12.93;6.87;;;6.10;70.40;5.80;96723.00;;;;5057164;28;20201;-82
2023/01/26 00:42:05;;;;;;;16.20;7.27;;;6.10;70.70;5.80;96726.00;;;;5056958;28;20220;-82
2023/01/26 00:43:58;;;;;;;12.80;7.03;;;6.10;70.50;5.80;96726.00;;;;5034854;28;20267;-82
2023/01/26 00:46:25;;;;;;;13.73;6.83;;;6.10;70.70;5.80;96725.00;;;;5052502;28;20889;-82
2023/01/26 00:48:52;;;;;;;17.67;7.47;;;6.10;70.80;5.80;96725.00;;;;5074409;28;20230;-80
2023/01/26 00:51:19;;;;;;;17.87;7.80;;;6.10;70.80;5.80;96718.00;;;;5070668;28;20212;-82
2023/01/26 00:53:48;;;;;;;12.87;6.93;;;6.10;70.80;5.80;96725.00;;;;5054603;28;20224;-82
2023/01/26 00:56:15;;;;;;;13.63;7.77;;;6.20;71.00;5.90;96715.00;;;;5052423;28;20258;-80
2023/01/26 00:58:44;;;;;;;16.40;7.47;;;6.20;71.00;5.90;96714.00;;;;5062894;28;20253;-79
2023/01/26 01:01:12;;;;;;;11.97;6.90;;;6.20;71.60;5.90;96710.00;;;;5075350;28;20381;-79
2023/01/26 01:03:40;;;;;;;11.70;7.07;;;6.20;71.00;5.90;96708.00;;;;5079600;28;20680;-80
2023/01/26 01:06:07;;;;;;;11.77;6.80;;;6.20;70.90;5.90;96697.00;;;;5076427;28;20235;-80
2023/01/26 01:08:34;;;;;;;17.77;6.63;;;6.20;70.80;5.90;96704.00;;;;5076968;28;20246;-79
2023/01/26 01:11:07;;;;;;;14.27;7.17;;;6.20;70.70;5.90;96706.00;;;;5076837;28;20243;-77
2023/01/26 01:13:34;;;;;;;12.03;6.73;;;6.20;70.70;5.80;96713.00;;;;5079607;28;20258;-80
2023/01/26 01:16:05;;;;;;;12.77;6.80;;;6.20;70.70;5.80;96709.00;;;;5079162;28;20222;-80
2023/01/26 01:18:33;;;;;;;12.43;6.43;;;6.20;70.50;5.80;96706.00;;;;5075214;28;20209;-80
2023/01/26 01:21:01;;;;;;;10.63;6.23;;;6.10;70.20;5.80;96707.00;;;;5062411;28;20219;-80
2023/01/26 01:23:29;;;;;;;17.57;7.23;;;6.10;70.10;5.80;96704.00;;;;5078628;28;20216;-80
2023/01/26 01:26:00;;;;;;;22.33;6.97;;;6.10;70.20;5.80;96702.00;;;;5077277;28;20209;-79
2023/01/26 01:28:27;;;;;;;10.57;6.13;;;6.10;70.30;5.80;96703.00;;;;5076838;28;20192;-80
2023/01/26 01:30:55;;;;;;;11.03;6.77;;;6.10;70.40;5.70;96707.00;;;;5056855;28;20215;-81
2023/01/26 01:33:23;;;;;;;11.17;7.33;;;6.10;70.30;5.70;96699.00;;;;5075450;28;20240;-80
2023/01/26 01:35:59;;;;;;;12.27;6.83;;;6.10;70.30;5.70;96702.00;;;;5077693;28;20230;-79
2023/01/26 01:38:27;;;;;;;13.37;6.90;;;6.10;70.40;5.70;96707.00;;;;5057499;28;20192;-80
2023/01/26 01:40:55;;;;;;;12.17;6.97;;;6.00;70.50;5.70;96703.00;;;;5054847;28;20943;-81
2023/01/26 01:43:24;;;;;;;23.67;7.60;;;6.10;70.80;5.80;96705.00;;;;5055188;28;20189;-81
2023/01/26 01:45:52;;;;;;;13.70;7.70;;;6.10;70.80;5.80;96704.00;;;;5054896;28;20193;-81
2023/01/26 01:48:28;;;;;;;11.93;7.60;;;6.10;71.00;5.80;96713.00;;;;5055083;28;20273;-81
2023/01/26 01:51:03;;;;;;;12.60;7.23;;;6.10;70.80;5.80;96693.00;;;;5044806;28;20641;-81
2023/01/26 01:53:35;;;;;;;12.20;7.20;;;6.10;70.80;5.80;96701.00;;;;5057974;28;20239;-80
2023/01/26 01:56:10;;;;;;;12.97;7.53;;;6.10;70.50;5.80;96701.00;;;;5058934;28;20215;-78
2023/01/26 01:58:43;;;;;;;15.77;8.07;;;6.10;70.40;5.80;96701.00;;;;5059125;28;20184;-80
2023/01/26 02:01:10;;;;;;;13.70;7.50;;;6.10;70.10;5.80;96698.00;;;;5059352;28;20213;-79
2023/01/26 02:03:39;;;;;;;13.33;7.90;;;6.10;70.10;5.80;96695.00;;;;5055173;28;20224;-79
2023/01/26 02:06:13;;;;;;;10.90;6.87;;;6.10;70.10;5.70;96689.00;;;;5050722;28;20724;-79
2023/01/26 02:08:45;;;;;;;12.37;7.30;;;6.10;70.00;5.70;96690.00;;;;5048265;28;20597;-78
2023/01/26 02:11:17;;;;;;;12.80;7.50;;;6.10;69.90;5.70;96686.00;;;;5051053;28;20209;-79
2023/01/26 02:13:48;;;;;;;11.27;7.33;;;6.10;69.80;5.70;96688.00;;;;5055106;28;21613;-79
2023/01/26 02:16:16;;;;;;;12.93;7.30;;;6.00;69.70;5.70;96678.00;;;;5053665;28;20556;-79
2023/01/26 02:18:45;;;;;;;12.67;7.70;;;6.00;69.70;5.60;96673.00;;;;5053485;28;22216;-79
2023/01/26 02:21:18;;;;;;;15.87;7.77;;;6.00;69.70;5.60;96670.00;;;;5056518;28;20228;-78
2023/01/26 02:24:02;;;;;;;13.60;7.67;;;6.00;69.60;5.60;96660.00;;;;5053825;28;20193;-79
2023/01/26 02:26:35;;;;;;;13.27;7.23;;;6.00;69.80;5.60;96663.00;;;;5052743;28;20235;-78
2023/01/26 02:29:06;;;;;;;13.17;6.80;;;5.90;69.70;5.60;96672.00;;;;5052808;28;20216;-79
2023/01/26 02:31:33;;;;;;;16.37;7.00;;;5.90;69.60;5.60;96662.00;;;;5047072;28;20227;-79
2023/01/26 02:34:00;;;;;;;12.23;6.20;;;5.90;69.70;5.50;96656.00;;;;5052444;28;20252;-79
2023/01/26 02:36:31;;;;;;;23.70;7.93;;;5.90;69.80;5.50;96658.00;;;;5054453;28;20496;-78
2023/01/26 02:39:17;;;;;;;28.43;7.73;;;5.90;70.00;5.60;96652.00;;;;5044950;28;20630;-78
2023/01/26 02:44:38;;;;;;;16.00;7.43;;;5.90;70.20;5.60;96646.00;;;;5032607;28;20217;-79
2023/01/26 02:47:13;;;;;;;12.23;7.10;;;5.90;70.40;5.60;96641.00;;;;5055946;28;20934;-79
2023/01/26 02:49:49;;;;;;;11.50;6.50;;;5.90;70.40;5.60;96641.00;;;;5050801;28;20196;-79
2023/01/26 02:52:19;;;;;;;12.97;7.23;;;5.90;70.30;5.60;96639.00;;;;5049777;28;20228;-79
2023/01/26 02:57:34;;;;;;;12.23;7.07;;;5.90;70.30;5.60;96622.00;;;;5051564;28;20443;-79
2023/01/26 03:00:01;;;;;;;11.63;7.00;;;5.90;70.20;5.60;96623.00;;;;5056456;28;20193;-79
2023/01/26 03:02:28;;;;;;;13.07;7.30;;;5.90;70.00;5.60;96619.00;;;;5057597;28;20220;-79
2023/01/26 03:04:55;;;;;;;12.27;6.80;;;5.90;69.70;5.60;96621.00;;;;5054906;28;20304;-79
2023/01/26 03:07:22;;;;;;;12.83;7.33;;;5.90;69.60;5.50;96612.00;;;;5048762;28;20228;-79
2023/01/26 03:09:50;;;;;;;10.67;6.13;;;5.90;69.50;5.50;96610.00;;;;5051056;28;20220;-79
2023/01/26 03:12:17;;;;;;;12.37;6.60;;;5.90;69.40;5.40;96609.00;;;;5056501;28;20262;-79
2023/01/26 03:14:45;;;;;;;13.43;7.40;;;5.80;69.20;5.40;96612.00;;;;5054343;28;20249;-79
2023/01/26 03:17:32;;;;;;;11.47;6.47;;;5.80;69.50;5.40;96611.00;;;;5051909;28;20220;-79
2023/01/26 03:28:14;;;;;;;12.13;6.57;;;5.80;70.00;5.50;96605.00;;;;5058154;28;20245;-78
2023/01/26 03:30:42;;;;;;;15.73;7.80;;;5.80;70.10;5.50;96607.00;;;;5057153;28;20223;-79
2023/01/26 03:33:09;;;;;;;13.27;7.20;;;5.80;70.10;5.50;96606.00;;;;5050336;28;20263;-79
2023/01/26 03:35:37;;;;;;;13.27;7.57;;;5.90;70.40;5.50;96601.00;;;;5052084;28;20246;-79
2023/01/26 03:38:04;;;;;;;11.63;6.90;;;5.80;70.30;5.60;96605.00;;;;5044877;28;20203;-79
2023/01/26 03:57:06;;;;;;;10.27;6.23;;;5.90;70.00;5.60;96612.00;;;;5057542;28;20707;-79
2023/01/26 03:59:39;;;;;;;11.80;5.90;;;5.90;69.90;5.60;96608.00;;;;5054284;28;20254;-80
2023/01/26 04:10:27;;;;;;;12.83;6.20;;;5.90;69.80;5.50;96601.00;;;;5055800;28;20714;-79
2023/01/26 04:21:28;;;;;;;11.20;5.80;;;5.90;70.00;5.60;96591.00;;;;5053851;28;20277;-80
2023/01/26 04:23:57;;;;;;;10.67;6.20;;;5.90;69.80;5.50;96592.00;;;;5056306;28;20206;-80
2023/01/26 04:26:25;;;;;;;11.27;6.37;;;5.90;69.60;5.50;96586.00;;;;5066743;28;20215;-82
2023/01/26 04:28:53;;;;;;;16.93;7.40;;;5.90;69.50;5.50;96590.00;;;;5066869;28;20208;-82
2023/01/26 04:31:20;;;;;;;11.23;6.60;;;5.90;69.30;5.50;96581.00;;;;5061147;28;20244;-82
2023/01/26 04:33:49;;;;;;;12.53;7.13;;;5.80;69.40;5.50;96591.00;;;;5050035;28;20311;-83
2023/01/26 04:36:16;;;;;;;12.33;6.67;;;5.80;69.30;5.40;96591.00;;;;5056149;28;20575;-83
2023/01/26 04:38:43;;;;;;;11.23;6.10;;;5.80;69.30;5.40;96586.00;;;;5047380;28;20232;-82
2023/01/26 04:41:10;;;;;;;11.83;6.60;;;5.80;69.60;5.50;96577.00;;;;5059345;28;20277;-80
2023/01/26 04:43:37;;;;;;;10.07;6.50;;;5.80;69.60;5.50;96581.00;;;;5053090;28;20200;-80
2023/01/26 04:46:07;;;;;;;11.13;6.33;;;5.80;69.40;5.40;96581.00;;;;5064125;28;20197;-80
2023/01/26 04:48:35;;;;;;;16.00;6.60;;;5.80;69.40;5.40;96582.00;;;;5059556;28;20197;-82
2023/01/26 04:51:06;;;;;;;14.57;6.90;;;5.80;69.40;5.40;96584.00;;;;5060498;28;20221;-82
2023/01/26 04:53:34;;;;;;;17.07;7.03;;;5.80;69.60;5.40;96580.00;;;;5063150;28;20217;-82
2023/01/26 04:56:01;;;;;;;22.67;7.33;;;5.80;69.70;5.40;96574.00;;;;5064853;28;20246;-82
2023/01/26 04:58:29;;;;;;;12.70;7.00;;;5.80;69.80;5.50;96577.00;;;;5059844;28;20237;-82
2023/01/26 05:00:58;;;;;;;15.83;7.10;;;5.80;70.00;5.50;96579.00;;;;5064356;28;20274;-82
2023/01/26 05:03:27;;;;;;;22.37;7.83;;;5.80;69.90;5.50;96575.00;;;;5065230;28;20212;-83
2023/01/26 05:05:55;;;;;;;12.83;7.00;;;5.80;70.00;5.50;96574.00;;;;5071614;28;20196;-82
2023/01/26 05:08:24;;;;;;;18.93;6.93;;;5.70;70.20;5.50;96591.00;;;;5061321;28;20213;-83
2023/01/26 05:10:51;;;;;;;23.23;7.93;;;5.80;70.30;5.50;96580.00;;;;5067915;28;20275;-83
2023/01/26 05:13:19;;;;;;;17.53;7.23;;;5.80;70.40;5.60;96587.00;;;;5060408;28;20254;-83
2023/01/26 05:15:47;;;;;;;25.50;7.47;;;5.80;70.50;5.60;96579.00;;;;5070876;28;20227;-83
2023/01/26 05:18:15;;;;;;;14.50;7.80;;;5.90;70.50;5.60;96588.00;;;;5057025;28;20240;-83
2023/01/26 05:20:42;;;;;;;20.70;6.80;;;5.90;70.50;5.60;96583.00;;;;5065990;28;20213;-82
2023/01/26 05:23:09;;;;;;;14.60;7.13;;;5.90;70.50;5.60;96584.00;;;;5065726;28;20201;-83
2023/01/26 05:25:38;;;;;;;13.87;7.10;;;5.90;70.60;5.60;96583.00;;;;5066885;28;20196;-83
2023/01/26 05:28:06;;;;;;;14.33;7.47;;;5.90;70.60;5.70;96581.00;;;;5064531;28;20196;-83
2023/01/26 05:30:33;;;;;;;9.93;6.07;;;5.90;70.50;5.70;96581.00;;;;5064662;28;20216;-83
2023/01/26 05:33:02;;;;;;;12.10;7.33;;;5.90;70.20;5.70;96591.00;;;;5062648;28;20226;-84
2023/01/26 05:35:29;;;;;;;12.53;7.33;;;6.00;70.10;5.70;96583.00;;;;5059317;28;20193;-84
2023/01/26 05:37:56;;;;;;;18.50;6.63;;;6.00;69.90;5.60;96582.00;;;;5061842;28;20212;-84
2023/01/26 05:40:25;;;;;;;13.93;7.33;;;6.00;69.70;5.60;96585.00;;;;5057681;28;20246;-84
2023/01/26 05:42:54;;;;;;;13.60;7.40;;;6.00;69.80;5.60;96581.00;;;;5052981;28;20216;-83
2023/01/26 05:45:21;;;;;;;11.67;6.47;;;6.00;70.10;5.70;96585.00;;;;5057081;28;20224;-84
2023/01/26 05:47:49;;;;;;;14.47;6.63;;;5.90;69.80;5.60;96583.00;;;;5057794;28;20255;-83
2023/01/26 05:50:17;;;;;;;14.03;7.40;;;5.90;69.70;5.60;96582.00;;;;5058577;28;20206;-84
2023/01/26 05:52:45;;;;;;;11.77;6.60;;;5.90;69.70;5.60;96587.00;;;;5060771;28;20252;-82
2023/01/26 05:55:13;;;;;;;10.87;6.40;;;5.90;69.50;5.50;96586.00;;;;5060733;28;20646;-82
2023/01/26 05:57:41;;;;;;;8.13;5.73;;;5.90;69.40;5.50;96587.00;;;;5060365;28;20249;-82
2023/01/26 06:00:13;;;;;;;11.03;6.07;;;5.90;69.40;5.50;96581.00;;;;5059425;28;20639;-83
2023/01/26 06:02:40;;;;;;;10.93;6.27;;;5.80;69.20;5.40;96588.00;;;;5058008;28;20671;-83
2023/01/26 06:05:09;;;;;;;13.77;6.47;;;5.80;69.10;5.40;96578.00;;;;5056818;28;20688;-84
2023/01/26 06:07:36;;;;;;;10.57;6.17;;;5.80;69.00;5.30;96573.00;;;;5057085;28;20235;-84
2023/01/26 06:10:05;;;;;;;13.23;6.93;;;5.70;69.20;5.30;96582.00;;;;5059992;28;20251;-83
2023/01/26 06:12:34;;;;;;;12.07;6.47;;;5.70;69.40;5.30;96582.00;;;;5059189;28;20220;-82
2023/01/26 06:15:02;;;;;;;14.70;6.60;;;5.70;69.40;5.30;96583.00;;;;5059471;28;20247;-84
2023/01/26 06:17:30;;;;;;;33.83;6.97;;;5.70;69.40;5.30;96586.00;;;;5058512;28;20235;-84
2023/01/26 06:19:58;;;;;;;16.23;6.50;;;5.70;69.50;5.30;96577.00;;;;5061406;28;20197;-82
2023/01/26 06:22:25;;;;;;;19.63;7.67;;;5.60;69.70;5.30;96586.00;;;;5060340;28;20228;-84
2023/01/26 06:24:52;;;;;;;16.87;6.63;;;5.60;70.00;5.30;96581.00;;;;5060264;28;20232;-83
2023/01/26 06:27:19;;;;;;;13.13;6.97;;;5.70;70.10;5.30;96589.00;;;;5063873;28;20193;-83
2023/01/26 06:29:47;;;;;;;12.60;6.80;;;5.60;69.90;5.40;96576.00;;;;5061320;28;20200;-81
2023/01/26 06:32:19;;;;;;;12.03;6.07;;;5.60;69.80;5.40;96585.00;;;;5051759;28;20203;-83
2023/01/26 06:34:56;;;;;;;10.67;6.07;;;5.70;69.90;5.40;96581.00;;;;5048310;28;20685;-82
2023/01/26 06:37:26;;;;;;;10.80;6.73;;;5.70;69.70;5.40;96585.00;;;;5061769;28;20661;-85
2023/01/26 06:39:53;;;;;;;12.87;6.53;;;5.80;69.70;5.40;96586.00;;;;5058561;28;20204;-83
2023/01/26 06:42:21;;;;;;;11.70;6.47;;;5.70;69.60;5.40;96583.00;;;;5058540;28;20217;-83
2023/01/26 06:44:48;;;;;;;9.70;6.10;;;5.70;70.00;5.40;96583.00;;;;5059391;28;20227;-82
2023/01/26 06:47:15;;;;;;;12.77;6.63;;;5.70;70.00;5.40;96587.00;;;;5059780;28;20193;-83
2023/01/26 06:49:42;;;;;;;10.97;7.03;;;5.70;69.90;5.40;96578.00;;;;5063763;28;20750;-83
2023/01/26 06:52:27;;;;;;;14.40;6.47;;;5.70;70.00;5.40;96577.00;;;;5062595;28;20235;-82
2023/01/26 06:54:57;;;;;;;12.53;6.87;;;5.70;69.90;5.40;96578.00;;;;5064029;28;20252;-83
2023/01/26 06:57:26;;;;;;;10.30;5.37;;;5.70;69.70;5.40;96578.00;;;;5065034;28;20205;-83
2023/01/26 06:59:54;;;;;;;10.27;5.53;;;5.70;69.50;5.40;96582.00;;;;5062859;28;20212;-83
2023/01/26 07:02:25;;;;;;;10.83;6.00;;;5.70;69.40;5.40;96587.00;;;;5058822;28;20300;-83
2023/01/26 07:04:53;;;;;;;12.37;6.47;;;5.70;69.10;5.40;96577.00;;;;5059417;28;20209;-83
2023/01/26 07:07:22;;;;;;;10.13;6.00;;;5.70;69.10;5.40;96580.00;;;;5054971;28;20195;-81
2023/01/26 07:09:49;;;;;;;10.50;6.37;;;5.70;69.10;5.30;96569.00;;;;5064733;28;20606;-82
2023/01/26 07:12:16;;;;;;;9.50;5.97;;;5.70;69.10;5.30;96576.00;;;;5057163;28;20247;-82
2023/01/26 07:14:44;;;;;;;12.80;6.80;;;5.70;69.00;5.30;96576.00;;;;5061580;28;20251;-83
2023/01/26 07:17:11;;;;;;;11.77;6.73;;;5.70;68.80;5.20;96565.00;;;;5059643;28;20207;-82
2023/01/26 07:19:38;;;;;;;9.60;5.80;;;5.60;68.80;5.20;96569.00;;;;5061322;28;20193;-81
2023/01/26 07:22:06;;;;;;;10.90;6.07;;;5.60;68.90;5.20;96565.00;;;;5062120;28;20224;-82
2023/01/26 07:24:34;;;;;;;12.33;6.07;;;5.60;68.80;5.20;96567.00;;;;5055891;28;20196;-83
2023/01/26 07:27:01;;;;;;;8.47;5.97;;;5.60;68.90;5.10;96571.00;;;;5059914;28;20204;-83
2023/01/26 07:29:29;;;;;;;11.63;5.90;;;5.60;68.90;5.10;96567.00;;;;5056753;28;20599;-83
2023/01/26 07:31:56;;;;;;;10.27;6.07;;;5.50;68.90;5.10;96567.00;;;;5056320;28;20414;-84
2023/01/26 07:34:23;;;;;;;10.83;6.37;;;5.50;69.00;5.10;96565.00;;;;5065700;28;20216;-83
2023/01/26 07:36:52;;;;;;;12.40;6.10;;;5.50;69.10;5.10;96563.00;;;;5058099;28;20197;-82
2023/01/26 07:39:19;;;;;;;9.40;5.90;;;5.50;69.10;5.10;96565.00;;;;5051076;28;20200;-83
2023/01/26 07:41:51;;;;;;;10.00;6.53;;;5.50;69.10;5.20;96567.00;;;;5051047;28;20247;-84
2023/01/26 07:44:19;;;;;;;9.67;5.40;;;5.50;69.40;5.30;96556.00;;;;5052587;28;20444;-84
2023/01/26 07:46:46;;;;;;;10.77;5.70;;;5.50;69.40;5.30;96559.00;;;;5056146;28;20208;-82
2023/01/26 07:49:13;;;;;;;11.37;6.27;;;5.60;69.40;5.40;96555.00;;;;5053855;28;20740;-84
2023/01/26 07:51:40;;;;;;;9.83;5.67;;;5.60;69.20;5.40;96550.00;;;;5053055;28;20339;-84
2023/01/26 07:54:11;;;;;;;9.97;5.70;;;5.60;69.10;5.40;96559.00;;;;5050267;28;20239;-85
2023/01/26 07:56:38;;;;;;;9.83;6.47;;;5.60;68.90;5.30;96555.00;;;;5055102;28;20246;-85
2023/01/26 07:59:07;;;;;;;10.50;6.13;;;5.60;68.90;5.30;96566.00;;;;5051417;28;20227;-81
2023/01/26 08:01:34;;;;;;;11.07;6.33;;;5.60;68.90;5.30;96553.00;;;;5051784;28;20212;-84
2023/01/26 08:04:01;;;;;;;10.50;5.70;;;5.60;68.80;5.30;96559.00;;;;5054353;28;20613;-84
2023/01/26 08:06:31;;;;;;;10.47;6.43;;;5.60;68.80;5.30;96555.00;;;;5054074;28;20674;-84
2023/01/26 08:08:58;;;;;;;11.63;6.37;;;5.60;68.80;5.30;96557.00;;;;5052765;28;20258;-84
2023/01/26 08:11:25;;;;;;;11.20;6.37;;;5.60;69.00;5.40;96558.00;;;;5052494;28;20302;-83
2023/01/26 08:13:53;;;;;;;11.07;6.67;;;5.60;68.80;5.40;96560.00;;;;5054285;28;20224;-84
2023/01/26 08:16:21;;;;;;;13.73;6.27;;;5.60;68.70;5.40;96554.00;;;;5053056;28;20197;-84
2023/01/26 08:18:49;;;;;;;10.23;5.87;;;5.60;68.70;5.40;96552.00;;;;5048283;28;20208;-83
2023/01/26 08:21:19;;;;;;;11.63;6.30;;;5.60;68.90;5.40;96548.00;;;;5043891;28;20526;-84
2023/01/26 08:23:50;;;;;;;12.97;5.77;;;5.60;68.90;5.40;96544.00;;;;5052732;28;20218;-84
2023/01/26 08:26:19;;;;;;;9.63;5.50;;;5.60;68.80;5.50;96544.00;;;;5051381;28;20207;-84
2023/01/26 08:28:47;;;;;;;11.40;5.70;;;5.60;69.00;5.50;96549.00;;;;5053276;28;20312;-84
2023/01/26 08:31:18;;;;;;;9.37;5.23;;;5.60;69.20;5.60;96555.00;;;;5053313;28;20266;-84
2023/01/26 08:33:49;;;;;;;14.53;6.03;;;5.70;69.10;5.60;96551.00;;;;5043764;28;20204;-84
2023/01/26 08:36:18;;;;;;;11.97;6.50;;;5.70;69.20;5.60;96560.00;;;;5055094;28;20279;-84
2023/01/26 08:38:45;;;;;;;9.33;5.37;;;5.70;69.40;5.70;96555.00;;;;5056771;28;20211;-85
2023/01/26 08:41:13;;;;;;;9.07;5.67;;;5.70;69.20;5.70;96555.00;;;;5052311;28;20216;-86
2023/01/26 08:43:40;;;;;;;11.10;5.50;;;5.80;69.00;5.70;96547.00;;;;5055372;28;20723;-85
2023/01/26 08:46:08;;;;;;;10.20;5.80;;;5.80;68.80;5.60;96546.00;;;;5051130;28;20197;-85
2023/01/26 08:48:36;;;;;;;12.40;5.57;;;5.80;68.60;5.60;96543.00;;;;5057821;28;20219;-85
2023/01/26 08:51:07;;;;;;;9.73;5.73;;;5.80;69.40;5.70;96542.00;;;;5052368;28;20271;-85
2023/01/26 08:53:37;;;;;;;10.03;5.77;;;5.80;68.90;5.70;96549.00;;;;5056197;28;20277;-85
2023/01/26 08:56:07;;;;;;;9.37;5.87;;;5.90;68.90;5.70;96543.00;;;;5047179;28;20287;-84
2023/01/26 08:58:35;;;;;;;10.13;5.70;;;5.90;68.60;5.70;96547.00;;;;5053625;28;20258;-84
2023/01/26 09:01:06;;;;;;;8.63;5.40;;;5.90;68.30;5.70;96544.00;;;;5056444;28;20221;-85
2023/01/26 09:03:34;;;;;;;12.37;6.10;;;5.90;68.20;5.80;96541.00;;;;5054563;28;20224;-84
2023/01/26 09:06:03;;;;;;;13.13;5.93;;;5.90;68.30;5.80;96548.00;;;;5054287;28;20664;-85
2023/01/26 09:08:32;;;;;;;10.50;5.90;;;5.90;68.60;5.90;96551.00;;;;5050468;28;20205;-85
2023/01/26 09:11:01;;;;;;;16.77;6.60;;;5.90;68.70;5.90;96549.00;;;;5049512;28;20256;-84
2023/01/26 09:13:30;;;;;;;15.07;6.60;;;6.00;68.80;5.90;96543.00;;;;5052035;28;20251;-85
2023/01/26 09:15:57;;;;;;;10.90;6.13;;;6.00;68.90;6.00;96557.00;;;;5050425;28;20226;-85
2023/01/26 09:18:24;;;;;;;11.53;6.57;;;6.00;69.00;6.00;96556.00;;;;5047903;28;20250;-86
2023/01/26 09:20:54;;;;;;;11.83;6.50;;;6.10;69.00;6.00;96560.00;;;;5052983;28;20285;-85
2023/01/26 09:23:22;;;;;;;11.60;6.33;;;6.10;68.90;6.10;96558.00;;;;5054650;28;20622;-85
2023/01/26 09:25:54;;;;;;;10.07;6.60;;;6.10;68.80;6.10;96567.00;;;;5056914;28;20258;-84
2023/01/26 09:28:21;;;;;;;11.17;6.37;;;6.10;68.50;6.10;96563.00;;;;5054256;28;20221;-85
2023/01/26 09:30:51;;;;;;;13.00;6.20;;;6.20;68.50;6.10;96563.00;;;;5049131;28;20224;-84
2023/01/26 09:33:20;;;;;;;12.47;6.20;;;6.20;68.50;6.10;96565.00;;;;5058675;28;20201;-85
2023/01/26 09:35:47;;;;;;;9.43;6.10;;;6.20;68.70;6.10;96569.00;;;;5053326;28;20228;-85
2023/01/26 09:38:14;;;;;;;10.17;5.97;;;6.20;68.60;6.20;96555.00;;;;5055375;28;20224;-85
2023/01/26 09:41:05;;;;;;;11.67;6.47;;;6.20;68.70;6.20;96576.00;;;;5045972;28;20248;-84
2023/01/26 09:43:41;;;;;;;11.30;6.50;;;6.30;68.60;6.20;96566.00;;;;5055850;28;20193;-86
2023/01/26 09:46:24;;;;;;;14.77;6.73;;;6.30;68.60;6.20;96560.00;;;;5052519;28;20195;-86
2023/01/26 09:49:06;;;;;;;12.37;7.13;;;6.40;68.60;6.30;96559.00;;;;5054839;28;20625;-83
2023/01/26 09:51:38;;;;;;;11.23;6.33;;;6.40;68.60;6.30;96563.00;;;;5052393;28;20304;-85
2023/01/26 09:54:20;;;;;;;10.60;6.13;;;6.40;68.50;6.30;96561.00;;;;5054650;28;20221;-86
2023/01/26 09:56:55;;;;;;;12.00;6.47;;;6.40;68.00;6.30;96561.00;;;;5047751;28;20220;-86
2023/01/26 09:59:35;;;;;;;12.40;6.60;;;6.40;67.70;6.30;96555.00;;;;5054040;28;20231;-84
2023/01/26 10:02:23;;;;;;;12.87;6.23;;;6.40;67.60;6.20;96553.00;;;;5050450;28;20239;-85
2023/01/26 10:05:01;;;;;;;15.97;6.93;;;6.40;67.50;6.20;96551.00;;;;5050800;28;20738;-86
2023/01/26 10:07:29;;;;;;;13.40;7.20;;;6.40;67.70;6.20;96556.00;;;;5049009;28;20193;-86
2023/01/26 10:09:57;;;;;;;18.40;6.33;;;6.40;68.00;6.30;96549.00;;;;5046401;28;20201;-86
2023/01/26 10:12:31;;;;;;;15.27;6.90;;;6.30;68.70;6.30;96545.00;;;;5047158;28;20220;-85
2023/01/26 10:15:04;;;;;;;11.87;6.10;;;6.40;68.10;6.20;96547.00;;;;5045997;28;20266;-85
2023/01/26 10:17:35;;;;;;;15.60;6.40;;;6.40;68.10;6.30;96535.00;;;;5052121;28;20204;-85
2023/01/26 10:20:20;;;;;;;12.80;6.70;;;6.40;68.10;6.30;96532.00;;;;5053346;28;20216;-85
2023/01/26 10:22:54;;;;;;;10.83;6.30;;;6.40;68.10;6.30;96539.00;;;;5034896;28;20224;-86
2023/01/26 10:25:30;;;;;;;12.13;6.50;;;6.40;68.20;6.30;96535.00;;;;5041116;28;20232;-86
2023/01/26 10:27:59;;;;;;;11.30;6.70;;;6.40;68.20;6.30;96536.00;;;;5048195;28;21631;-86
2023/01/26 10:30:26;;;;;;;15.30;7.07;;;6.40;68.10;6.40;96534.00;;;;5053664;28;20565;-85
2023/01/26 10:32:54;;;;;;;11.07;6.97;;;6.40;68.00;6.40;96531.00;;;;5053309;28;20697;-86
2023/01/26 10:35:24;;;;;;;14.93;6.77;;;6.50;68.20;6.40;96531.00;;;;5051135;28;20303;-86
2023/01/26 10:37:52;;;;;;;11.67;7.20;;;6.50;68.20;6.40;96535.00;;;;5040529;28;20243;-86
2023/01/26 10:40:21;;;;;;;12.93;7.20;;;6.50;68.20;6.40;96535.00;;;;5049698;28;20232;-85
2023/01/26 10:42:59;;;;;;;13.50;6.57;;;6.50;68.10;6.40;96531.00;;;;5051112;28;20299;-85
2023/01/26 10:45:31;;;;;;;9.87;6.97;;;6.60;68.10;6.50;96527.00;;;;5053989;28;20602;-86
2023/01/26 10:48:17;;;;;;;10.87;6.90;;;6.60;68.00;6.50;96527.00;;;;5050356;28;20192;-86
2023/01/26 10:50:45;;;;;;;11.07;7.27;;;6.60;67.70;6.50;96517.00;;;;5050021;28;20300;-86
2023/01/26 10:53:22;;;;;;;9.10;6.47;;;6.60;67.50;6.50;96525.00;;;;5052938;28;20200;-85
2023/01/26 10:56:13;;;;;;;10.07;6.97;;;6.60;67.30;6.50;96528.00;;;;5051323;28;20212;-86
2023/01/26 10:58:56;;;;;;;10.37;6.70;;;6.60;67.50;6.40;96515.00;;;;5052725;28;20227;-86
2023/01/26 11:01:26;;;;;;;11.83;7.23;;;6.60;67.70;6.40;96517.00;;;;5047199;28;20499;-85
2023/01/26 11:04:10;;;;;;;17.03;7.30;;;6.60;67.80;6.40;96513.00;;;;5048749;28;20291;-86
2023/01/26 11:06:39;;;;;;;11.27;7.33;;;6.60;67.90;6.40;96522.00;;;;5051321;28;20208;-84
2023/01/26 11:09:17;;;;;;;12.23;7.00;;;6.60;68.00;6.40;96518.00;;;;5051529;28;20193;-85
2023/01/26 11:12:00;;;;;;;15.47;7.63;;;6.60;67.90;6.40;96519.00;;;;5050480;28;20303;-85
2023/01/26 11:14:30;;;;;;;14.93;8.27;;;6.60;67.90;6.40;96516.00;;;;5048441;28;20287;-86
2023/01/26 11:17:12;;;;;;;12.37;8.43;;;6.60;67.90;6.40;96519.00;;;;5054094;28;20220;-85
2023/01/26 11:20:02;;;;;;;12.80;8.73;;;6.60;67.90;6.40;96517.00;;;;5051704;28;20211;-88
2023/01/26 11:22:43;;;;;;;17.40;8.47;;;6.60;67.70;6.40;96510.00;;;;5044291;28;20311;-85
2023/01/26 11:25:24;;;;;;;12.43;8.07;;;6.60;67.80;6.40;96513.00;;;;5052921;28;20205;-86
2023/01/26 11:28:14;;;;;;;13.93;7.37;;;6.60;67.70;6.40;96512.00;;;;5046445;28;20197;-86
2023/01/26 11:31:14;;;;;;;14.77;7.00;;;6.60;67.70;6.30;96516.00;;;;5046529;28;20228;-86
2023/01/26 11:33:56;;;;;;;13.47;7.13;;;6.50;67.70;6.30;96513.00;;;;5049252;28;20247;-85
2023/01/26 11:36:38;;;;;;;16.93;7.53;;;6.50;67.60;6.30;96505.00;;;;5052796;28;20669;-85
2023/01/26 11:39:20;;;;;;;10.33;7.20;;;6.50;67.50;6.30;96512.00;;;;5042977;28;20228;-86
2023/01/26 11:42:11;;;;;;;10.03;6.60;;;6.50;67.40;6.30;96510.00;;;;5047471;28;20255;-85
2023/01/26 11:45:02;;;;;;;20.40;6.90;;;6.50;67.40;6.20;96509.00;;;;5056044;28;20258;-82
2023/01/26 11:47:50;;;;;;;13.63;6.97;;;6.50;67.60;6.30;96499.00;;;;5050046;28;20197;-83
2023/01/26 11:50:35;;;;;;;9.47;6.37;;;6.40;67.60;6.30;96508.00;;;;5052090;28;20607;-84
2023/01/26 11:53:27;;;;;;;9.20;6.47;;;6.50;67.50;6.30;96502.00;;;;5044813;28;20254;-83
2023/01/26 11:56:21;;;;;;;10.60;7.10;;;6.50;68.20;6.30;96508.00;;;;5051319;28;20219;-83
2023/01/26 11:58:55;;;;;;;15.77;7.37;;;6.40;67.40;6.30;96495.00;;;;5049923;28;20228;-83
2023/01/26 12:01:28;;;;;;;17.80;8.03;;;6.40;67.30;6.30;96493.00;;;;5051003;28;20247;-82
2023/01/26 12:03:58;;;;;;;12.30;7.20;;;6.40;67.40;6.30;96491.00;;;;5050480;28;20243;-83
2023/01/26 12:06:37;;;;;;;13.90;7.23;;;6.40;67.50;6.30;96487.00;;;;5050432;28;20882;-82